Time;durP1;ratioP1;P1;durP2;ratioP2;P2;SDS_P1;SDS_P2;PMS_P1;PMS_P2;Temp;Humidity;BMP_temperature;BMP_pressure;BME280_temperature;BME280_humidity;BME280_pressure;Samples;Min_cycle;Max_cycle;Signal;HPM_P1;HPM_P2
2023/01/05 00:01:22;;;;;;;9.87;2.10;;;9.70;99.90;;;;;;5025947;28;20192;-48
2023/01/05 00:03:48;;;;;;;11.17;1.80;;;9.70;99.90;;;;;;5025167;28;20203;-43
2023/01/05 00:06:17;;;;;;;10.80;2.40;;;9.70;99.90;;;;;;5023638;28;20302;-42
2023/01/05 00:08:45;;;;;;;10.07;2.17;;;9.70;99.90;;;;;;5028614;28;20203;-46
2023/01/05 00:22:32;;;;;;;10.63;2.17;;;9.80;99.90;;;;;;5020518;28;20188;-42
2023/01/05 00:25:01;;;;;;;14.93;2.60;;;9.80;99.90;;;;;;5019983;28;20580;-55
2023/01/05 00:27:29;;;;;;;8.73;2.30;;;9.90;99.90;;;;;;5023770;28;20363;-50
2023/01/05 00:29:57;;;;;;;10.10;2.07;;;9.90;99.90;;;;;;5028400;28;20203;-55
2023/01/05 00:32:24;;;;;;;10.03;1.63;;;9.90;99.90;;;;;;5021693;28;20203;-48
2023/01/05 00:35:15;;;;;;;15.07;2.53;;;9.90;99.90;;;;;;5029001;28;20233;-47
2023/01/05 00:37:42;;;;;;;10.73;2.30;;;9.90;99.90;;;;;;5039665;28;20298;-48
2023/01/05 00:40:12;;;;;;;13.43;2.97;;;9.90;99.90;;;;;;5020399;28;20692;-58
2023/01/05 00:42:39;;;;;;;11.30;2.43;;;9.90;99.90;;;;;;5032413;28;20211;-45
2023/01/05 00:45:09;;;;;;;14.67;3.63;;;9.90;99.90;;;;;;5035413;28;20670;-56
2023/01/05 00:47:37;;;;;;;12.73;4.20;;;9.90;99.90;;;;;;5039161;28;20729;-48
2023/01/05 00:50:04;;;;;;;12.40;4.00;;;9.90;99.90;;;;;;5033886;28;20210;-56
2023/01/05 00:52:30;;;;;;;12.37;2.47;;;9.90;99.90;;;;;;5036041;28;20897;-42
2023/01/05 00:54:57;;;;;;;10.80;2.40;;;9.80;99.90;;;;;;5031577;28;20203;-58
2023/01/05 00:57:24;;;;;;;13.67;2.50;;;9.90;99.90;;;;;;5025828;28;20314;-43
2023/01/05 00:59:53;;;;;;;10.13;1.80;;;9.90;99.90;;;;;;5035345;28;20239;-51
2023/01/05 01:02:21;;;;;;;12.87;2.40;;;9.80;99.90;;;;;;5033295;28;20195;-47
2023/01/05 01:04:48;;;;;;;9.23;2.30;;;9.80;99.90;;;;;;5036164;28;20199;-45
2023/01/05 01:07:15;;;;;;;12.93;2.63;;;9.80;99.90;;;;;;5028223;28;20214;-43
2023/01/05 01:09:43;;;;;;;9.60;2.17;;;9.80;99.90;;;;;;5038760;28;20205;-42
2023/01/05 01:12:10;;;;;;;9.50;2.37;;;9.80;99.90;;;;;;5016699;28;20223;-55
2023/01/05 01:14:38;;;;;;;6.87;2.00;;;9.70;99.90;;;;;;5032837;28;20214;-44
2023/01/05 01:17:06;;;;;;;13.07;2.83;;;9.70;99.90;;;;;;5036469;28;20207;-56
2023/01/05 01:19:34;;;;;;;9.47;2.00;;;9.70;99.90;;;;;;5035319;28;20211;-43
2023/01/05 01:22:01;;;;;;;12.27;2.60;;;9.70;99.90;;;;;;5031611;28;20678;-57
2023/01/05 01:24:29;;;;;;;9.80;2.37;;;9.70;99.90;;;;;;5032546;28;20246;-44
2023/01/05 01:26:56;;;;;;;8.23;1.70;;;9.60;99.90;;;;;;5032722;28;20315;-54
2023/01/05 01:29:24;;;;;;;10.10;1.90;;;9.60;99.90;;;;;;5024885;28;20292;-48
2023/01/05 01:31:53;;;;;;;7.10;2.10;;;9.60;99.90;;;;;;5033866;28;20202;-46
2023/01/05 01:34:20;;;;;;;6.57;1.63;;;9.60;99.90;;;;;;5031776;28;20186;-47
2023/01/05 01:36:48;;;;;;;5.63;1.30;;;9.50;99.90;;;;;;5039142;28;20219;-43
2023/01/05 01:39:20;;;;;;;7.20;2.40;;;9.50;99.90;;;;;;5027548;28;20207;-43
2023/01/05 01:41:52;;;;;;;6.73;1.57;;;9.50;99.90;;;;;;5033365;28;20897;-55
2023/01/05 01:44:48;;;;;;;8.07;1.73;;;9.40;99.90;;;;;;5015326;28;20286;-42
2023/01/05 01:47:27;;;;;;;6.67;1.50;;;9.40;99.90;;;;;;5031860;28;20228;-48
2023/01/05 01:49:57;;;;;;;10.83;2.27;;;9.30;99.90;;;;;;5037672;28;20195;-54
2023/01/05 01:52:28;;;;;;;10.97;2.07;;;9.30;99.90;;;;;;5038798;28;20294;-43
2023/01/05 01:54:57;;;;;;;11.03;2.40;;;9.30;99.90;;;;;;5024448;28;20200;-57
2023/01/05 01:57:26;;;;;;;9.97;2.27;;;9.20;99.90;;;;;;5023669;28;20277;-42
2023/01/05 01:59:53;;;;;;;10.77;2.47;;;9.20;99.90;;;;;;5018026;28;20211;-54
2023/01/05 02:02:22;;;;;;;9.90;3.03;;;9.20;99.90;;;;;;5022089;28;20187;-44
2023/01/05 02:04:50;;;;;;;8.50;2.57;;;9.20;99.90;;;;;;5023288;28;20239;-45
2023/01/05 02:07:17;;;;;;;8.90;1.80;;;9.20;99.90;;;;;;5021027;28;20212;-45
2023/01/05 02:09:46;;;;;;;8.60;2.13;;;9.10;99.90;;;;;;5029129;28;20666;-42
2023/01/05 02:12:28;;;;;;;6.57;1.80;;;9.10;99.90;;;;;;5018782;28;20232;-45
2023/01/05 02:15:09;;;;;;;11.37;2.93;;;9.20;99.90;;;;;;5017625;28;20250;-57
2023/01/05 02:17:47;;;;;;;12.03;1.93;;;9.10;99.90;;;;;;5031202;28;20756;-53
2023/01/05 02:20:52;;;;;;;7.40;2.07;;;9.10;99.90;;;;;;5020010;28;20686;-55
2023/01/05 02:23:57;;;;;;;11.43;2.07;;;9.10;99.90;;;;;;5015377;28;20208;-49
2023/01/05 02:27:10;;;;;;;11.37;2.20;;;9.10;99.90;;;;;;5021301;28;20288;-58
2023/01/05 02:30:02;;;;;;;8.27;1.80;;;9.10;99.90;;;;;;5012905;28;20294;-54
2023/01/05 02:32:37;;;;;;;9.43;2.37;;;9.10;99.90;;;;;;5027857;28;20286;-59
2023/01/05 02:35:13;;;;;;;6.20;1.50;;;9.10;99.90;;;;;;5025493;28;20200;-46
2023/01/05 02:37:47;;;;;;;6.10;1.50;;;9.00;99.90;;;;;;5026881;28;20211;-50
2023/01/05 02:40:19;;;;;;;8.77;1.47;;;9.00;99.90;;;;;;5031792;28;20203;-43
2023/01/05 02:42:49;;;;;;;8.23;1.93;;;9.00;99.90;;;;;;5040119;28;20203;-45
2023/01/05 02:45:21;;;;;;;4.83;1.67;;;9.00;99.90;;;;;;5020696;28;20233;-56
2023/01/05 02:47:51;;;;;;;9.43;1.73;;;9.00;99.90;;;;;;5030486;28;20227;-45
2023/01/05 02:50:23;;;;;;;10.90;1.67;;;9.00;99.90;;;;;;5027037;28;20208;-52
2023/01/05 02:52:57;;;;;;;8.00;2.13;;;9.00;99.90;;;;;;5025844;28;20239;-48
2023/01/05 02:55:32;;;;;;;13.13;2.07;;;8.90;99.90;;;;;;5023920;28;20203;-54
2023/01/05 02:58:05;;;;;;;6.57;1.17;;;9.00;99.90;;;;;;5026177;28;20285;-43
2023/01/05 03:00:38;;;;;;;12.57;1.83;;;8.90;99.90;;;;;;5009864;28;20207;-59
2023/01/05 03:03:09;;;;;;;12.90;1.80;;;8.90;99.90;;;;;;5061999;28;20201;-43
2023/01/05 03:05:44;;;;;;;7.93;1.77;;;8.90;99.90;;;;;;5023716;28;20940;-45
2023/01/05 03:08:20;;;;;;;6.63;1.60;;;8.90;99.90;;;;;;5034094;28;20200;-45
2023/01/05 03:13:45;;;;;;;6.73;2.17;;;8.80;99.90;;;;;;5032791;28;20219;-43
2023/01/05 03:16:22;;;;;;;8.97;1.60;;;8.80;99.90;;;;;;5027781;28;20218;-58
2023/01/05 03:35:33;;;;;;;10.17;1.30;;;8.80;99.90;;;;;;5029967;28;20895;-47
2023/01/05 03:38:10;;;;;;;7.30;1.60;;;8.80;99.90;;;;;;5038871;28;20211;-43
2023/01/05 03:40:39;;;;;;;7.30;1.13;;;8.80;99.90;;;;;;5035721;28;20195;-47
2023/01/05 03:43:07;;;;;;;6.53;1.23;;;8.80;99.90;;;;;;5038465;28;20196;-48
2023/01/05 03:45:38;;;;;;;8.13;1.30;;;8.80;99.90;;;;;;5029728;28;20219;-48
2023/01/05 03:48:06;;;;;;;5.50;1.27;;;8.80;99.90;;;;;;5023448;28;20223;-43
2023/01/05 03:50:35;;;;;;;8.73;1.90;;;8.70;99.90;;;;;;5037023;28;20800;-44
2023/01/05 03:53:02;;;;;;;7.03;1.60;;;8.80;99.90;;;;;;5034588;28;20223;-48
2023/01/05 03:55:30;;;;;;;5.87;1.30;;;8.70;99.90;;;;;;5035213;28;20207;-44
2023/01/05 03:57:57;;;;;;;4.73;0.90;;;8.70;99.90;;;;;;5039974;28;20223;-47
2023/01/05 04:00:25;;;;;;;9.27;1.87;;;8.70;99.90;;;;;;5026732;28;20195;-58
2023/01/05 04:02:59;;;;;;;6.03;1.20;;;8.70;99.90;;;;;;5038517;28;20218;-43
2023/01/05 04:05:26;;;;;;;11.30;2.03;;;8.70;99.90;;;;;;5013438;28;20250;-56
2023/01/05 04:07:54;;;;;;;10.37;2.33;;;8.60;99.90;;;;;;5033645;28;20583;-44
2023/01/05 04:10:22;;;;;;;10.37;1.87;;;8.60;99.90;;;;;;5036625;28;20434;-55
2023/01/05 04:12:49;;;;;;;5.07;1.37;;;8.60;99.90;;;;;;5036910;28;20294;-43
2023/01/05 04:15:18;;;;;;;8.10;1.47;;;8.60;99.90;;;;;;5019408;28;20579;-56
2023/01/05 04:17:45;;;;;;;6.13;1.30;;;8.60;99.90;;;;;;5037502;28;20837;-47
2023/01/05 04:20:13;;;;;;;8.63;1.33;;;8.50;99.90;;;;;;5018977;28;20616;-55
2023/01/05 04:22:40;;;;;;;6.97;1.03;;;8.50;99.90;;;;;;5031220;28;20196;-43
2023/01/05 04:25:10;;;;;;;8.83;1.40;;;8.50;99.90;;;;;;5032763;28;20199;-56
2023/01/05 04:27:39;;;;;;;8.63;1.80;;;8.40;99.90;;;;;;5035150;28;20215;-49
2023/01/05 04:30:07;;;;;;;5.80;2.37;;;8.40;99.90;;;;;;5016610;28;20269;-44
2023/01/05 04:32:34;;;;;;;11.87;1.70;;;8.40;99.90;;;;;;5027567;28;20573;-55
2023/01/05 04:35:01;;;;;;;9.17;1.23;;;8.30;99.90;;;;;;5020609;28;20238;-47
2023/01/05 04:37:28;;;;;;;10.83;2.00;;;8.30;99.90;;;;;;5032615;28;20296;-51
2023/01/05 04:39:55;;;;;;;8.73;1.20;;;8.30;99.90;;;;;;5031358;28;20235;-45
2023/01/05 04:42:24;;;;;;;9.13;1.13;;;8.20;99.90;;;;;;5036879;28;20314;-55
2023/01/05 04:44:54;;;;;;;4.83;1.50;;;8.20;99.90;;;;;;5036129;28;20274;-46
2023/01/05 04:47:21;;;;;;;3.70;1.13;;;8.20;99.90;;;;;;5031918;28;20233;-54
2023/01/05 04:49:51;;;;;;;4.87;1.17;;;8.10;99.90;;;;;;5018641;28;20205;-42
2023/01/05 04:52:17;;;;;;;8.10;1.17;;;8.10;99.90;;;;;;5034376;28;20195;-53
2023/01/05 04:54:45;;;;;;;6.20;1.13;;;8.10;99.90;;;;;;5029431;28;20234;-45
2023/01/05 04:57:13;;;;;;;5.40;0.97;;;8.10;99.90;;;;;;5035458;28;20302;-45
2023/01/05 04:59:41;;;;;;;6.53;1.10;;;8.10;99.90;;;;;;5033394;28;20195;-46
2023/01/05 05:02:10;;;;;;;7.23;0.97;;;8.10;99.90;;;;;;5024253;28;20290;-49
2023/01/05 05:04:39;;;;;;;6.67;1.10;;;8.10;99.90;;;;;;5018700;28;20211;-50
2023/01/05 05:07:07;;;;;;;8.63;1.37;;;8.10;99.90;;;;;;5032143;28;20621;-44
2023/01/05 05:09:34;;;;;;;5.17;1.37;;;8.10;99.90;;;;;;5029715;28;20199;-58
2023/01/05 05:12:01;;;;;;;6.70;1.33;;;8.10;99.90;;;;;;5038883;28;20203;-42
2023/01/05 05:14:28;;;;;;;5.17;1.20;;;8.10;99.90;;;;;;5035193;28;20859;-51
2023/01/05 05:16:59;;;;;;;8.77;1.30;;;8.00;99.90;;;;;;5026022;28;20863;-57
2023/01/05 05:19:29;;;;;;;6.83;1.00;;;8.10;99.90;;;;;;5019207;28;20704;-46
2023/01/05 05:21:57;;;;;;;4.57;0.97;;;8.00;99.90;;;;;;5027095;28;20251;-56
2023/01/05 05:24:26;;;;;;;4.17;1.17;;;8.10;99.90;;;;;;5033862;28;20582;-47
2023/01/05 05:26:52;;;;;;;9.97;1.33;;;8.10;99.90;;;;;;5034636;28;20219;-56
2023/01/05 05:29:19;;;;;;;7.93;1.20;;;8.10;99.90;;;;;;5037461;28;20670;-43
2023/01/05 05:31:47;;;;;;;7.87;1.63;;;8.00;99.90;;;;;;5037166;28;20581;-56
2023/01/05 05:34:15;;;;;;;8.17;1.90;;;8.00;99.90;;;;;;5034469;28;20341;-44
2023/01/05 05:36:42;;;;;;;5.50;1.50;;;8.10;99.90;;;;;;5021255;28;20704;-57
2023/01/05 05:39:11;;;;;;;10.40;1.50;;;8.10;99.90;;;;;;5028003;28;20911;-44
2023/01/05 05:41:38;;;;;;;6.17;1.03;;;8.10;99.90;;;;;;5027482;28;20250;-42
2023/01/05 05:44:05;;;;;;;5.20;1.50;;;8.10;99.90;;;;;;5029179;28;20269;-48
2023/01/05 05:46:32;;;;;;;6.43;1.30;;;8.10;99.90;;;;;;5025109;28;20587;-43
2023/01/05 05:48:59;;;;;;;11.70;1.70;;;8.00;99.90;;;;;;5022121;28;20751;-47
2023/01/05 05:51:27;;;;;;;6.70;1.30;;;8.10;99.90;;;;;;5012531;28;20209;-44
2023/01/05 05:53:54;;;;;;;8.07;1.40;;;8.10;99.90;;;;;;5027781;28;20222;-54
2023/01/05 05:56:22;;;;;;;12.60;1.70;;;8.10;99.90;;;;;;5029565;28;20297;-43
2023/01/05 05:58:49;;;;;;;4.47;1.40;;;8.10;99.90;;;;;;5021711;28;20200;-50
2023/01/05 06:01:16;;;;;;;11.07;1.67;;;8.10;99.90;;;;;;5032566;28;20199;-45
2023/01/05 06:03:44;;;;;;;6.63;1.63;;;8.20;99.90;;;;;;5033092;28;20208;-55
2023/01/05 06:06:11;;;;;;;9.73;1.70;;;8.20;99.90;;;;;;5021761;28;20233;-46
2023/01/05 06:08:39;;;;;;;6.17;1.70;;;8.20;99.90;;;;;;5040049;28;20206;-43
2023/01/05 06:11:06;;;;;;;6.20;1.13;;;8.20;99.90;;;;;;5027985;28;20211;-45
2023/01/05 06:13:34;;;;;;;13.20;1.63;;;8.20;99.90;;;;;;5038171;28;20223;-47
2023/01/05 06:16:00;;;;;;;10.20;1.47;;;8.20;99.90;;;;;;5029653;28;20570;-44
2023/01/05 06:18:27;;;;;;;5.50;1.60;;;8.30;99.90;;;;;;5034706;28;20195;-41
2023/01/05 06:20:54;;;;;;;8.13;1.50;;;8.30;99.90;;;;;;5026563;28;20211;-54
2023/01/05 06:23:21;;;;;;;6.87;1.77;;;8.30;99.90;;;;;;5020337;28;20203;-41
2023/01/05 06:25:49;;;;;;;11.93;1.57;;;8.30;99.90;;;;;;5028594;28;20200;-54
2023/01/05 06:28:16;;;;;;;7.50;1.40;;;8.30;99.90;;;;;;5029508;28;20210;-44
2023/01/05 06:30:43;;;;;;;7.20;1.27;;;8.30;99.90;;;;;;5031756;28;20196;-52
2023/01/05 06:33:10;;;;;;;10.67;1.37;;;8.30;99.90;;;;;;5029164;28;20197;-44
2023/01/05 06:35:36;;;;;;;7.80;1.73;;;8.30;99.90;;;;;;5037365;28;20726;-51
2023/01/05 06:38:03;;;;;;;6.83;1.23;;;8.30;99.90;;;;;;5011100;28;20471;-43
2023/01/05 06:40:30;;;;;;;12.40;1.60;;;8.30;99.90;;;;;;5036631;28;20238;-47
2023/01/05 06:42:58;;;;;;;4.00;1.40;;;8.30;99.90;;;;;;5019637;28;20336;-55
2023/01/05 06:45:25;;;;;;;13.17;1.70;;;8.30;99.90;;;;;;5031741;28;20204;-42
2023/01/05 06:47:52;;;;;;;11.17;1.37;;;8.30;99.90;;;;;;5030770;28;20234;-55
2023/01/05 06:50:19;;;;;;;8.83;1.87;;;8.30;99.90;;;;;;5036901;28;20211;-43
2023/01/05 06:52:46;;;;;;;7.83;1.43;;;8.30;99.90;;;;;;5019858;28;20574;-57
2023/01/05 06:55:13;;;;;;;6.03;1.17;;;8.30;99.90;;;;;;5034782;28;20207;-45
2023/01/05 06:57:40;;;;;;;5.77;1.40;;;8.30;99.90;;;;;;5030010;28;20394;-50
2023/01/05 07:00:10;;;;;;;5.67;1.87;;;8.30;99.90;;;;;;5037990;28;20184;-47
2023/01/05 07:02:38;;;;;;;5.20;1.60;;;8.30;99.90;;;;;;5028457;28;20207;-50
2023/01/05 07:05:07;;;;;;;7.07;1.87;;;8.30;99.90;;;;;;5027222;28;20862;-43
2023/01/05 07:07:33;;;;;;;4.07;1.27;;;8.40;99.90;;;;;;5008057;28;20219;-45
2023/01/05 07:10:00;;;;;;;7.10;1.50;;;8.40;99.90;;;;;;5036484;28;20206;-46
2023/01/05 07:12:27;;;;;;;9.53;1.73;;;8.40;99.90;;;;;;5016579;28;20200;-51
2023/01/05 07:14:54;;;;;;;8.67;1.43;;;8.40;99.90;;;;;;5031030;28;20291;-41
2023/01/05 07:17:22;;;;;;;11.27;2.00;;;8.40;99.90;;;;;;5029423;28;20219;-54
2023/01/05 07:19:49;;;;;;;8.43;1.50;;;8.40;99.90;;;;;;5031062;28;20287;-48
2023/01/05 07:22:16;;;;;;;7.60;1.93;;;8.40;99.90;;;;;;5017649;28;20211;-54
2023/01/05 07:24:44;;;;;;;9.53;1.97;;;8.40;99.90;;;;;;5027540;28;20856;-45
2023/01/05 07:27:11;;;;;;;8.17;1.20;;;8.40;99.90;;;;;;5037401;28;20302;-55
2023/01/05 07:29:38;;;;;;;8.73;1.90;;;8.40;99.90;;;;;;5022329;28;20809;-47
2023/01/05 07:32:05;;;;;;;10.77;1.83;;;8.50;99.90;;;;;;5036188;28;20669;-42
2023/01/05 07:34:34;;;;;;;11.70;1.97;;;8.50;99.90;;;;;;5022788;28;20211;-47
2023/01/05 07:37:00;;;;;;;9.77;1.80;;;8.50;99.90;;;;;;5037712;28;20215;-44
2023/01/05 07:39:27;;;;;;;8.77;1.93;;;8.60;99.90;;;;;;5010704;28;20200;-42
2023/01/05 07:41:54;;;;;;;9.97;1.50;;;8.60;99.90;;;;;;5032106;28;20647;-44
2023/01/05 07:44:25;;;;;;;7.93;1.40;;;8.60;99.90;;;;;;5025292;28;20199;-54
2023/01/05 07:46:52;;;;;;;6.73;1.53;;;8.60;99.90;;;;;;5033527;28;20685;-44
2023/01/05 07:49:21;;;;;;;11.17;1.67;;;8.60;99.90;;;;;;5030769;28;20603;-56
2023/01/05 07:51:50;;;;;;;9.80;1.83;;;8.50;99.90;;;;;;5035459;28;20667;-44
2023/01/05 07:54:16;;;;;;;6.63;1.73;;;8.60;99.90;;;;;;5008771;28;20673;-54
2023/01/05 07:56:44;;;;;;;12.87;1.80;;;8.50;99.90;;;;;;5038837;28;20273;-41
2023/01/05 07:59:11;;;;;;;13.20;2.03;;;8.50;99.90;;;;;;5033066;28;20682;-58
2023/01/05 08:01:38;;;;;;;6.37;1.20;;;8.40;99.90;;;;;;5022344;28;20975;-44
2023/01/05 08:04:05;;;;;;;12.63;2.13;;;8.40;99.90;;;;;;5032813;28;20199;-48
2023/01/05 08:06:32;;;;;;;7.60;2.20;;;8.40;99.90;;;;;;5026931;28;20237;-43
2023/01/05 08:10:27;;;;;;;6.33;1.73;;;8.40;99.90;;;;;;5027263;28;20571;-48
2023/01/05 08:11:47;;;;;;;15.63;2.67;;;8.50;99.90;;;;;;5033404;28;20544;-44
2023/01/05 08:14:14;;;;;;;11.53;2.30;;;8.50;99.90;;;;;;5024929;28;20196;-53
2023/01/05 08:16:42;;;;;;;9.77;2.60;;;8.50;99.90;;;;;;5032898;28;20220;-42
2023/01/05 08:19:09;;;;;;;10.10;1.40;;;8.40;99.90;;;;;;5032237;28;20211;-47
2023/01/05 08:21:36;;;;;;;8.90;1.73;;;8.30;99.90;;;;;;5035003;28;20821;-44
2023/01/05 08:24:05;;;;;;;7.70;2.43;;;8.10;99.90;;;;;;5034845;28;20199;-54
2023/01/05 08:26:32;;;;;;;10.13;1.50;;;8.00;99.90;;;;;;5012265;28;20223;-45
2023/01/05 08:28:59;;;;;;;8.10;2.10;;;8.00;99.90;;;;;;5027914;28;20200;-41
2023/01/05 08:31:30;;;;;;;7.17;2.03;;;7.90;99.90;;;;;;5026615;28;20188;-42
2023/01/05 08:33:58;;;;;;;8.80;2.23;;;7.90;99.90;;;;;;5026721;28;20211;-42
2023/01/05 08:36:26;;;;;;;9.83;2.17;;;7.90;99.90;;;;;;5019797;28;20220;-44
2023/01/05 08:38:54;;;;;;;19.57;2.50;;;7.90;99.90;;;;;;5031657;28;20231;-43
2023/01/05 08:41:24;;;;;;;14.20;2.00;;;7.90;99.90;;;;;;5011091;28;20203;-47
2023/01/05 08:43:53;;;;;;;9.07;1.80;;;7.80;99.90;;;;;;5037927;28;20200;-44
2023/01/05 08:46:20;;;;;;;10.47;2.27;;;7.80;99.90;;;;;;5030711;28;20222;-42
2023/01/05 08:48:50;;;;;;;17.70;2.30;;;7.80;99.90;;;;;;5032977;28;20200;-46
2023/01/05 08:51:17;;;;;;;11.40;2.20;;;7.80;99.90;;;;;;5025447;28;20212;-47
2023/01/05 08:53:44;;;;;;;13.07;2.67;;;7.80;99.90;;;;;;5037798;28;20203;-45
2023/01/05 08:56:14;;;;;;;12.13;1.87;;;7.80;99.90;;;;;;5028649;28;21019;-44
2023/01/05 08:58:43;;;;;;;9.60;1.97;;;7.80;99.90;;;;;;5018966;28;20776;-46
2023/01/05 09:01:11;;;;;;;8.20;2.70;;;7.80;99.90;;;;;;5032584;28;20787;-43
2023/01/05 09:03:39;;;;;;;6.73;1.33;;;7.80;99.90;;;;;;5024991;28;20210;-45
2023/01/05 09:06:08;;;;;;;10.47;1.80;;;7.70;99.90;;;;;;5022728;28;20219;-44
2023/01/05 09:08:35;;;;;;;9.27;2.00;;;7.70;99.90;;;;;;5033603;28;20596;-46
2023/01/05 09:11:09;;;;;;;10.60;1.93;;;7.70;99.90;;;;;;5026406;28;20208;-48
2023/01/05 09:13:37;;;;;;;14.00;1.97;;;7.60;99.90;;;;;;5019180;28;20209;-42
2023/01/05 09:16:07;;;;;;;6.53;1.60;;;7.50;99.90;;;;;;5032721;28;20963;-44
2023/01/05 09:18:35;;;;;;;14.00;2.40;;;7.50;99.90;;;;;;5030342;28;20203;-48
2023/01/05 09:21:02;;;;;;;7.47;1.60;;;7.50;99.90;;;;;;5037579;28;20203;-46
2023/01/05 09:23:28;;;;;;;8.37;1.80;;;7.50;99.90;;;;;;5024400;28;20200;-42
2023/01/05 09:25:55;;;;;;;10.83;1.50;;;7.50;99.90;;;;;;5029438;28;20278;-46
2023/01/05 09:28:22;;;;;;;11.53;1.27;;;7.50;99.90;;;;;;5032624;28;20288;-42
2023/01/05 09:30:49;;;;;;;11.67;1.50;;;7.50;99.90;;;;;;5016779;28;20597;-45
2023/01/05 09:33:39;;;;;;;7.77;1.40;;;7.50;99.90;;;;;;5031280;28;20375;-47
2023/01/05 09:36:07;;;;;;;8.93;1.60;;;7.50;99.90;;;;;;5018495;28;20227;-44
2023/01/05 09:38:34;;;;;;;12.93;1.90;;;7.50;99.90;;;;;;5032227;28;20222;-44
2023/01/05 09:41:05;;;;;;;5.67;1.37;;;7.50;99.90;;;;;;5037147;28;20199;-42
2023/01/05 09:43:36;;;;;;;8.13;1.90;;;7.40;99.90;;;;;;5040598;28;20227;-41
2023/01/05 09:46:06;;;;;;;9.10;1.67;;;7.40;99.90;;;;;;5019836;28;20226;-41
2023/01/05 09:48:39;;;;;;;6.23;1.20;;;7.40;99.90;;;;;;5055336;28;20223;-42
2023/01/05 09:51:08;;;;;;;9.07;1.73;;;7.40;99.90;;;;;;5033042;28;20899;-44
2023/01/05 09:53:36;;;;;;;4.60;1.23;;;7.40;99.90;;;;;;5040646;28;20188;-42
2023/01/05 09:56:05;;;;;;;5.13;1.43;;;7.30;99.90;;;;;;5035892;28;20325;-47
2023/01/05 09:58:39;;;;;;;9.30;1.57;;;7.30;99.90;;;;;;5031090;28;20204;-42
2023/01/05 10:01:13;;;;;;;5.43;1.47;;;7.20;99.90;;;;;;5009941;28;20210;-43
2023/01/05 10:03:47;;;;;;;8.73;1.73;;;7.20;99.90;;;;;;5035416;28;20834;-49
2023/01/05 10:06:17;;;;;;;5.87;1.43;;;7.20;99.90;;;;;;5039093;28;20455;-46
2023/01/05 10:08:48;;;;;;;10.00;1.83;;;7.20;99.90;;;;;;5029567;28;20856;-49
2023/01/05 10:14:09;;;;;;;4.57;1.93;;;7.20;99.90;;;;;;5031999;28;20207;-44
2023/01/05 10:16:36;;;;;;;9.93;2.20;;;7.20;99.90;;;;;;5010579;28;20220;-45
2023/01/05 10:19:03;;;;;;;8.43;1.33;;;7.20;99.90;;;;;;5034183;28;20256;-42
2023/01/05 10:21:42;;;;;;;13.57;2.73;;;7.20;99.90;;;;;;5029063;28;20210;-43
2023/01/05 10:24:24;;;;;;;5.60;1.90;;;7.20;99.90;;;;;;5030571;28;20270;-42
2023/01/05 10:26:58;;;;;;;6.90;1.60;;;7.20;99.90;;;;;;5036675;28;20222;-48
2023/01/05 10:29:31;;;;;;;7.73;1.40;;;7.30;99.90;;;;;;5040306;28;20200;-44
2023/01/05 10:32:06;;;;;;;4.50;1.47;;;7.30;99.90;;;;;;5007257;28;21140;-45
2023/01/05 10:34:49;;;;;;;6.37;1.97;;;7.30;99.90;;;;;;5044366;28;20290;-41
2023/01/05 10:37:34;;;;;;;7.57;2.13;;;7.50;99.90;;;;;;5038676;28;20230;-47
2023/01/05 10:40:12;;;;;;;9.73;1.63;;;7.50;99.90;;;;;;5031301;28;21231;-45
2023/01/05 10:42:48;;;;;;;9.03;2.10;;;7.60;99.90;;;;;;5034993;28;20235;-46
2023/01/05 10:45:17;;;;;;;8.50;1.53;;;7.70;99.90;;;;;;5031648;28;20357;-43
2023/01/05 10:47:46;;;;;;;12.00;2.17;;;7.80;99.90;;;;;;5004361;28;21377;-42
2023/01/05 10:50:31;;;;;;;6.83;1.30;;;7.80;99.90;;;;;;5036391;28;20195;-44
2023/01/05 10:53:04;;;;;;;8.57;1.63;;;7.80;99.90;;;;;;5029817;28;20207;-44
2023/01/05 10:55:31;;;;;;;11.93;1.73;;;7.80;99.90;;;;;;5029582;28;20215;-51
2023/01/05 10:57:58;;;;;;;11.97;1.40;;;7.90;99.90;;;;;;5034348;28;20218;-47
2023/01/05 11:00:40;;;;;;;9.90;1.63;;;7.80;99.90;;;;;;5036770;28;20204;-51
2023/01/05 11:03:13;;;;;;;6.83;1.80;;;7.90;99.90;;;;;;5019858;28;20235;-44
2023/01/05 11:05:44;;;;;;;8.57;1.60;;;7.90;99.90;;;;;;5028655;28;20199;-49
2023/01/05 11:08:17;;;;;;;10.63;1.73;;;7.90;99.90;;;;;;5030128;28;20213;-48
2023/01/05 11:10:50;;;;;;;5.93;1.60;;;7.80;99.90;;;;;;5031929;28;20210;-50
2023/01/05 11:13:25;;;;;;;5.77;1.30;;;7.80;99.90;;;;;;5037680;28;20272;-46
2023/01/05 11:15:54;;;;;;;7.20;1.47;;;7.70;99.90;;;;;;5023857;28;20227;-50
2023/01/05 11:18:26;;;;;;;8.17;1.90;;;7.80;99.90;;;;;;5012657;28;20215;-49
2023/01/05 11:21:08;;;;;;;8.17;1.40;;;7.70;99.90;;;;;;5018560;28;20199;-47
2023/01/05 11:23:37;;;;;;;6.90;1.17;;;7.70;99.90;;;;;;5022426;28;20203;-49
2023/01/05 11:26:33;;;;;;;11.70;1.67;;;7.70;99.90;;;;;;5024547;28;20224;-49
2023/01/05 11:29:11;;;;;;;13.33;1.87;;;7.70;99.90;;;;;;5010372;28;20212;-46
2023/01/05 11:31:42;;;;;;;10.90;1.67;;;7.60;99.90;;;;;;5028890;28;20212;-48
2023/01/05 11:34:25;;;;;;;7.77;1.43;;;7.60;99.90;;;;;;5015742;28;20285;-46
2023/01/05 11:36:54;;;;;;;11.80;2.60;;;7.50;99.90;;;;;;5026458;28;20235;-47
2023/01/05 11:39:28;;;;;;;6.17;1.40;;;7.50;99.90;;;;;;5025415;28;20218;-49
2023/01/05 11:42:27;;;;;;;6.60;1.03;;;7.50;99.90;;;;;;5029036;28;20198;-46
2023/01/05 11:44:57;;;;;;;10.20;1.60;;;7.50;99.90;;;;;;5021447;28;20295;-48
2023/01/05 11:47:29;;;;;;;10.37;1.80;;;7.50;99.90;;;;;;5031205;28;20227;-49
2023/01/05 11:50:01;;;;;;;11.87;2.00;;;7.50;99.90;;;;;;5022546;28;20294;-47
2023/01/05 11:52:34;;;;;;;12.93;1.70;;;7.50;99.90;;;;;;5023314;28;20265;-48
2023/01/05 11:55:28;;;;;;;7.77;1.50;;;7.50;99.90;;;;;;5029785;28;20192;-48
2023/01/05 11:58:22;;;;;;;8.87;1.63;;;7.50;99.90;;;;;;5041717;28;20586;-50
2023/01/05 12:01:01;;;;;;;7.13;1.47;;;7.50;99.90;;;;;;5035457;28;20210;-50
2023/01/05 12:03:47;;;;;;;10.73;1.50;;;7.50;99.90;;;;;;5029684;28;20195;-50
2023/01/05 12:06:30;;;;;;;9.20;1.57;;;7.60;99.90;;;;;;5017025;28;20227;-52
2023/01/05 12:09:05;;;;;;;10.80;1.47;;;7.60;99.90;;;;;;5032193;28;20278;-52
2023/01/05 12:11:41;;;;;;;7.10;1.47;;;7.70;99.90;;;;;;5028001;28;20221;-51
2023/01/05 12:14:26;;;;;;;7.20;1.50;;;7.80;99.90;;;;;;5028885;28;20191;-51
2023/01/05 12:16:55;;;;;;;10.50;1.30;;;7.80;99.90;;;;;;5030637;28;20211;-49
2023/01/05 12:19:42;;;;;;;9.33;1.40;;;7.90;99.90;;;;;;5012820;28;20276;-52
2023/01/05 12:22:33;;;;;;;8.27;1.73;;;8.00;99.90;;;;;;5029973;28;20199;-52
2023/01/05 12:25:37;;;;;;;14.13;1.40;;;8.00;99.90;;;;;;5029035;28;20298;-52
2023/01/05 12:28:26;;;;;;;8.20;1.30;;;8.10;99.90;;;;;;5037452;28;20210;-52
2023/01/05 12:31:03;;;;;;;4.50;1.10;;;8.10;99.90;;;;;;5030313;28;20200;-51
2023/01/05 12:34:03;;;;;;;6.17;1.17;;;8.10;99.90;;;;;;5031365;28;20614;-51
2023/01/05 12:36:45;;;;;;;4.90;1.43;;;8.20;99.90;;;;;;5016123;28;20227;-51
2023/01/05 12:39:42;;;;;;;5.40;1.00;;;8.10;99.90;;;;;;5024600;28;20707;-52
2023/01/05 12:42:27;;;;;;;4.53;1.30;;;8.20;99.90;;;;;;5030880;28;20216;-52
2023/01/05 12:45:11;;;;;;;6.23;1.13;;;8.20;99.90;;;;;;5025276;28;20210;-51
2023/01/05 12:47:52;;;;;;;8.07;1.43;;;8.20;99.90;;;;;;5031658;28;20300;-53
2023/01/05 12:50:24;;;;;;;6.20;1.03;;;8.20;99.90;;;;;;5016024;28;20203;-54
2023/01/05 12:52:55;;;;;;;4.40;1.27;;;8.20;99.90;;;;;;5026533;28;20583;-54
2023/01/05 12:55:25;;;;;;;5.17;1.20;;;8.20;99.90;;;;;;5036525;28;20203;-46
2023/01/05 12:57:57;;;;;;;4.30;0.93;;;8.20;99.90;;;;;;5028060;28;20727;-49
2023/01/05 13:00:31;;;;;;;5.43;1.20;;;8.20;99.90;;;;;;5039042;28;20195;-49
2023/01/05 13:03:01;;;;;;;2.57;0.70;;;8.20;99.90;;;;;;5033771;28;20292;-51
2023/01/05 13:05:34;;;;;;;4.10;0.90;;;8.20;99.90;;;;;;5022448;28;20268;-51
2023/01/05 13:08:05;;;;;;;4.80;0.77;;;8.20;99.90;;;;;;5032923;28;20203;-50
2023/01/05 13:10:48;;;;;;;5.07;0.80;;;8.10;99.90;;;;;;5030841;28;20300;-50
2023/01/05 13:13:19;;;;;;;5.33;0.90;;;8.10;99.90;;;;;;5032541;28;20195;-53
2023/01/05 13:15:55;;;;;;;2.63;0.77;;;8.10;99.90;;;;;;5038742;28;20223;-53
2023/01/05 13:18:25;;;;;;;6.43;1.03;;;8.10;99.90;;;;;;5037170;28;20541;-49
2023/01/05 13:20:55;;;;;;;6.43;0.93;;;8.10;99.90;;;;;;5017034;28;20211;-50
2023/01/05 13:23:27;;;;;;;1.63;0.90;;;8.10;99.90;;;;;;5032871;28;20253;-47
2023/01/05 13:26:18;;;;;;;5.93;0.67;;;8.10;99.90;;;;;;5034244;28;20238;-50
2023/01/05 13:28:47;;;;;;;2.67;0.60;;;8.10;99.90;;;;;;5028715;28;20211;-53
2023/01/05 13:31:35;;;;;;;1.87;0.90;;;8.10;99.90;;;;;;5037671;28;20218;-50
2023/01/05 13:34:28;;;;;;;5.37;0.50;;;8.00;99.90;;;;;;5035738;28;20199;-48
2023/01/05 13:37:11;;;;;;;3.77;0.80;;;8.00;99.90;;;;;;5016307;28;21084;-50
2023/01/05 13:39:58;;;;;;;7.83;0.87;;;7.90;99.90;;;;;;5034795;28;20211;-51
2023/01/05 13:42:39;;;;;;;4.10;1.00;;;7.90;99.90;;;;;;5021697;28;20204;-50
2023/01/05 13:45:22;;;;;;;3.37;0.53;;;7.90;99.90;;;;;;5032090;28;20203;-49
2023/01/05 13:48:07;;;;;;;2.90;1.00;;;7.90;99.90;;;;;;5024921;28;20219;-49
2023/01/05 13:50:52;;;;;;;2.47;0.63;;;7.90;99.90;;;;;;5033041;28;20246;-48